sensor_id;sensor_type;location;lat;lon;timestamp;temperature;humidity
41310;DHT22;27057;51.438;-0.010;2023-04-29T00:06:42;10.60;99.90
41310;DHT22;27057;51.438;-0.010;2023-04-29T00:09:11;10.70;99.90
41310;DHT22;27057;51.438;-0.010;2023-04-29T00:11:38;11.00;99.90
41310;DHT22;27057;51.438;-0.010;2023-04-29T00:14:05;10.70;99.90
41310;DHT22;27057;51.438;-0.010;2023-04-29T00:19:01;10.50;99.90
41310;DHT22;27057;51.438;-0.010;2023-04-29T00:21:28;10.30;99.90
41310;DHT22;27057;51.438;-0.010;2023-04-29T00:23:56;10.70;99.90
41310;DHT22;27057;51.438;-0.010;2023-04-29T00:28:52;10.40;99.90
41310;DHT22;27057;51.438;-0.010;2023-04-29T00:31:19;10.90;99.90
41310;DHT22;27057;51.438;-0.010;2023-04-29T00:33:48;10.30;99.90
41310;DHT22;27057;51.438;-0.010;2023-04-29T00:36:15;10.40;99.90
41310;DHT22;27057;51.438;-0.010;2023-04-29T00:38:43;10.70;99.90
41310;DHT22;27057;51.438;-0.010;2023-04-29T00:41:10;10.10;99.90
41310;DHT22;27057;51.438;-0.010;2023-04-29T00:43:38;10.10;99.90
41310;DHT22;27057;51.438;-0.010;2023-04-29T00:46:05;10.00;99.90
41310;DHT22;27057;51.438;-0.010;2023-04-29T00:48:33;10.70;99.90
41310;DHT22;27057;51.438;-0.010;2023-04-29T00:51:01;10.00;99.90
41310;DHT22;27057;51.438;-0.010;2023-04-29T00:53:30;10.40;99.90
41310;DHT22;27057;51.438;-0.010;2023-04-29T00:55:58;10.00;99.90
41310;DHT22;27057;51.438;-0.010;2023-04-29T00:58:28;10.10;99.90
41310;DHT22;27057;51.438;-0.010;2023-04-29T01:01:03;10.70;99.90
41310;DHT22;27057;51.438;-0.010;2023-04-29T01:03:31;9.80;99.90
41310;DHT22;27057;51.438;-0.010;2023-04-29T01:06:28;10.60;99.90
41310;DHT22;27057;51.438;-0.010;2023-04-29T01:12:14;9.80;99.90
41310;DHT22;27057;51.438;-0.010;2023-04-29T01:14:52;9.70;99.90
41310;DHT22;27057;51.438;-0.010;2023-04-29T01:17:24;9.80;99.90
41310;DHT22;27057;51.438;-0.010;2023-04-29T01:19:54;10.00;99.90
41310;DHT22;27057;51.438;-0.010;2023-04-29T01:22:23;9.90;99.90
41310;DHT22;27057;51.438;-0.010;2023-04-29T01:24:50;9.50;99.90
41310;DHT22;27057;51.438;-0.010;2023-04-29T01:30:27;9.90;99.90
41310;DHT22;27057;51.438;-0.010;2023-04-29T01:33:09;10.00;99.90
41310;DHT22;27057;51.438;-0.010;2023-04-29T01:38:48;10.70;99.90
41310;DHT22;27057;51.438;-0.010;2023-04-29T01:44:28;9.40;99.90
41310;DHT22;27057;51.438;-0.010;2023-04-29T01:46:57;9.40;99.90
41310;DHT22;27057;51.438;-0.010;2023-04-29T01:49:34;10.80;99.90
41310;DHT22;27057;51.438;-0.010;2023-04-29T01:52:02;9.50;99.90
41310;DHT22;27057;51.438;-0.010;2023-04-29T01:54:30;9.50;99.90
41310;DHT22;27057;51.438;-0.010;2023-04-29T01:56:58;9.80;99.90
41310;DHT22;27057;51.438;-0.010;2023-04-29T01:59:34;9.40;99.90
41310;DHT22;27057;51.438;-0.010;2023-04-29T02:02:07;9.30;99.90
41310;DHT22;27057;51.438;-0.010;2023-04-29T02:04:41;9.30;99.90
41310;DHT22;27057;51.438;-0.010;2023-04-29T02:07:09;9.30;99.90
41310;DHT22;27057;51.438;-0.010;2023-04-29T02:09:37;9.30;99.90
41310;DHT22;27057;51.438;-0.010;2023-04-29T02:12:09;9.40;99.90
41310;DHT22;27057;51.438;-0.010;2023-04-29T02:14:37;9.50;99.90
41310;DHT22;27057;51.438;-0.010;2023-04-29T02:17:05;9.20;99.90
41310;DHT22;27057;51.438;-0.010;2023-04-29T02:19:33;9.30;99.90
41310;DHT22;27057;51.438;-0.010;2023-04-29T02:22:00;9.40;99.90
41310;DHT22;27057;51.438;-0.010;2023-04-29T02:24:28;9.00;99.90
41310;DHT22;27057;51.438;-0.010;2023-04-29T02:26:55;9.00;99.90
41310;DHT22;27057;51.438;-0.010;2023-04-29T02:29:23;9.00;99.90
41310;DHT22;27057;51.438;-0.010;2023-04-29T02:31:53;8.90;99.90
41310;DHT22;27057;51.438;-0.010;2023-04-29T02:34:21;8.80;99.90
41310;DHT22;27057;51.438;-0.010;2023-04-29T02:36:50;10.20;99.90
41310;DHT22;27057;51.438;-0.010;2023-04-29T02:39:20;8.90;99.90
41310;DHT22;27057;51.438;-0.010;2023-04-29T02:41:48;8.90;99.90
41310;DHT22;27057;51.438;-0.010;2023-04-29T02:44:15;9.00;99.90
41310;DHT22;27057;51.438;-0.010;2023-04-29T02:46:43;8.80;99.90
41310;DHT22;27057;51.438;-0.010;2023-04-29T02:49:12;8.60;99.90
41310;DHT22;27057;51.438;-0.010;2023-04-29T02:51:40;9.00;99.90
41310;DHT22;27057;51.438;-0.010;2023-04-29T02:54:08;9.70;99.90
41310;DHT22;27057;51.438;-0.010;2023-04-29T02:56:37;8.70;99.90
41310;DHT22;27057;51.438;-0.010;2023-04-29T02:59:05;8.60;99.90
41310;DHT22;27057;51.438;-0.010;2023-04-29T03:01:32;8.70;99.90
41310;DHT22;27057;51.438;-0.010;2023-04-29T03:04:00;8.70;99.90
41310;DHT22;27057;51.438;-0.010;2023-04-29T03:06:28;8.60;99.90
41310;DHT22;27057;51.438;-0.010;2023-04-29T03:08:55;8.90;99.90
41310;DHT22;27057;51.438;-0.010;2023-04-29T03:11:23;8.70;99.90
41310;DHT22;27057;51.438;-0.010;2023-04-29T03:13:51;8.70;99.90
41310;DHT22;27057;51.438;-0.010;2023-04-29T03:16:20;8.80;99.90
41310;DHT22;27057;51.438;-0.010;2023-04-29T03:18:48;8.80;99.90
41310;DHT22;27057;51.438;-0.010;2023-04-29T03:21:16;8.60;99.90
41310;DHT22;27057;51.438;-0.010;2023-04-29T03:23:43;8.70;99.90
41310;DHT22;27057;51.438;-0.010;2023-04-29T03:26:17;8.60;99.90
41310;DHT22;27057;51.438;-0.010;2023-04-29T03:28:45;8.50;99.90
41310;DHT22;27057;51.438;-0.010;2023-04-29T03:31:13;8.40;99.90
41310;DHT22;27057;51.438;-0.010;2023-04-29T03:33:43;9.00;99.90
41310;DHT22;27057;51.438;-0.010;2023-04-29T03:36:10;8.30;99.90
41310;DHT22;27057;51.438;-0.010;2023-04-29T03:38:50;8.50;99.90
41310;DHT22;27057;51.438;-0.010;2023-04-29T03:41:18;8.30;99.90
41310;DHT22;27057;51.438;-0.010;2023-04-29T03:43:46;8.20;99.90
41310;DHT22;27057;51.438;-0.010;2023-04-29T03:46:14;8.20;99.90
41310;DHT22;27057;51.438;-0.010;2023-04-29T03:48:41;8.60;99.90
41310;DHT22;27057;51.438;-0.010;2023-04-29T03:51:09;8.30;99.90
41310;DHT22;27057;51.438;-0.010;2023-04-29T03:53:37;8.20;99.90
41310;DHT22;27057;51.438;-0.010;2023-04-29T03:56:06;8.20;99.90
41310;DHT22;27057;51.438;-0.010;2023-04-29T03:58:33;8.20;99.90
41310;DHT22;27057;51.438;-0.010;2023-04-29T04:01:01;8.30;99.90
41310;DHT22;27057;51.438;-0.010;2023-04-29T04:03:36;8.20;99.90
41310;DHT22;27057;51.438;-0.010;2023-04-29T04:06:04;8.20;99.90
41310;DHT22;27057;51.438;-0.010;2023-04-29T04:08:32;8.30;99.90
41310;DHT22;27057;51.438;-0.010;2023-04-29T04:11:19;9.10;99.90
41310;DHT22;27057;51.438;-0.010;2023-04-29T04:13:55;8.10;99.90
41310;DHT22;27057;51.438;-0.010;2023-04-29T04:16:23;8.10;99.90
41310;DHT22;27057;51.438;-0.010;2023-04-29T04:18:51;8.10;99.90
41310;DHT22;27057;51.438;-0.010;2023-04-29T04:21:19;9.30;99.90
41310;DHT22;27057;51.438;-0.010;2023-04-29T04:23:55;8.00;99.90
41310;DHT22;27057;51.438;-0.010;2023-04-29T04:26:23;8.00;99.90
41310;DHT22;27057;51.438;-0.010;2023-04-29T04:29:09;8.00;99.90
41310;DHT22;27057;51.438;-0.010;2023-04-29T04:31:49;8.10;99.90
41310;DHT22;27057;51.438;-0.010;2023-04-29T04:34:18;8.20;99.90
41310;DHT22;27057;51.438;-0.010;2023-04-29T04:36:48;7.70;99.90
41310;DHT22;27057;51.438;-0.010;2023-04-29T04:39:16;7.90;99.90
41310;DHT22;27057;51.438;-0.010;2023-04-29T04:41:44;7.90;99.90
41310;DHT22;27057;51.438;-0.010;2023-04-29T04:44:11;7.90;99.90
41310;DHT22;27057;51.438;-0.010;2023-04-29T04:46:55;8.80;99.90
41310;DHT22;27057;51.438;-0.010;2023-04-29T04:49:46;8.00;99.90
41310;DHT22;27057;51.438;-0.010;2023-04-29T04:52:19;7.90;99.90
41310;DHT22;27057;51.438;-0.010;2023-04-29T04:54:54;8.00;99.90
41310;DHT22;27057;51.438;-0.010;2023-04-29T04:57:26;8.20;99.90
41310;DHT22;27057;51.438;-0.010;2023-04-29T04:59:56;8.30;99.90
41310;DHT22;27057;51.438;-0.010;2023-04-29T05:02:24;8.00;99.90
41310;DHT22;27057;51.438;-0.010;2023-04-29T05:04:51;8.40;99.90
41310;DHT22;27057;51.438;-0.010;2023-04-29T05:07:21;7.90;99.90
41310;DHT22;27057;51.438;-0.010;2023-04-29T05:10:14;8.20;99.90
41310;DHT22;27057;51.438;-0.010;2023-04-29T05:12:47;7.90;99.90
41310;DHT22;27057;51.438;-0.010;2023-04-29T05:15:14;7.90;99.90
41310;DHT22;27057;51.438;-0.010;2023-04-29T05:17:44;8.10;99.90
41310;DHT22;27057;51.438;-0.010;2023-04-29T05:20:11;7.80;99.90
41310;DHT22;27057;51.438;-0.010;2023-04-29T05:22:39;8.20;99.90
41310;DHT22;27057;51.438;-0.010;2023-04-29T05:25:07;8.40;99.90
41310;DHT22;27057;51.438;-0.010;2023-04-29T05:27:35;8.10;99.90
41310;DHT22;27057;51.438;-0.010;2023-04-29T05:30:06;9.10;99.90
41310;DHT22;27057;51.438;-0.010;2023-04-29T05:32:34;8.30;99.90
41310;DHT22;27057;51.438;-0.010;2023-04-29T05:35:02;8.40;99.90
41310;DHT22;27057;51.438;-0.010;2023-04-29T05:37:35;8.60;99.90
41310;DHT22;27057;51.438;-0.010;2023-04-29T05:40:11;8.70;99.90
41310;DHT22;27057;51.438;-0.010;2023-04-29T05:42:39;8.40;99.90
41310;DHT22;27057;51.438;-0.010;2023-04-29T05:45:07;8.90;99.90
41310;DHT22;27057;51.438;-0.010;2023-04-29T05:47:35;8.90;99.90
41310;DHT22;27057;51.438;-0.010;2023-04-29T05:50:03;10.10;99.90
41310;DHT22;27057;51.438;-0.010;2023-04-29T05:52:31;8.80;99.90
41310;DHT22;27057;51.438;-0.010;2023-04-29T05:55:00;9.20;99.90
41310;DHT22;27057;51.438;-0.010;2023-04-29T05:57:28;10.00;99.90
41310;DHT22;27057;51.438;-0.010;2023-04-29T05:59:56;9.10;99.90
41310;DHT22;27057;51.438;-0.010;2023-04-29T06:02:24;8.90;99.90
41310;DHT22;27057;51.438;-0.010;2023-04-29T06:04:51;9.40;99.90
41310;DHT22;27057;51.438;-0.010;2023-04-29T06:07:40;9.50;99.90
41310;DHT22;27057;51.438;-0.010;2023-04-29T06:10:32;9.50;99.90
41310;DHT22;27057;51.438;-0.010;2023-04-29T06:13:00;10.90;99.90
41310;DHT22;27057;51.438;-0.010;2023-04-29T06:15:27;9.90;99.90
41310;DHT22;27057;51.438;-0.010;2023-04-29T06:17:56;10.10;99.90
41310;DHT22;27057;51.438;-0.010;2023-04-29T06:20:24;10.00;99.90
41310;DHT22;27057;51.438;-0.010;2023-04-29T06:22:52;10.80;99.90
41310;DHT22;27057;51.438;-0.010;2023-04-29T06:25:20;10.20;99.90
41310;DHT22;27057;51.438;-0.010;2023-04-29T06:27:49;10.40;99.90
41310;DHT22;27057;51.438;-0.010;2023-04-29T06:30:20;10.70;99.90
41310;DHT22;27057;51.438;-0.010;2023-04-29T06:32:47;10.50;99.90
41310;DHT22;27057;51.438;-0.010;2023-04-29T06:35:16;10.70;99.90
41310;DHT22;27057;51.438;-0.010;2023-04-29T06:37:49;10.60;99.90
41310;DHT22;27057;51.438;-0.010;2023-04-29T06:40:40;12.00;99.90
41310;DHT22;27057;51.438;-0.010;2023-04-29T06:43:26;10.60;99.90
41310;DHT22;27057;51.438;-0.010;2023-04-29T06:46:14;10.80;99.90
41310;DHT22;27057;51.438;-0.010;2023-04-29T06:49:00;10.60;99.90
41310;DHT22;27057;51.438;-0.010;2023-04-29T06:51:28;11.00;99.90
41310;DHT22;27057;51.438;-0.010;2023-04-29T06:53:57;10.80;99.90
41310;DHT22;27057;51.438;-0.010;2023-04-29T06:56:25;12.50;99.90
41310;DHT22;27057;51.438;-0.010;2023-04-29T06:58:52;11.50;99.90
41310;DHT22;27057;51.438;-0.010;2023-04-29T07:01:19;11.20;99.90
41310;DHT22;27057;51.438;-0.010;2023-04-29T07:03:47;11.40;99.90
41310;DHT22;27057;51.438;-0.010;2023-04-29T07:06:15;11.40;99.90
41310;DHT22;27057;51.438;-0.010;2023-04-29T07:08:44;11.30;99.90
41310;DHT22;27057;51.438;-0.010;2023-04-29T07:11:15;11.30;99.90
41310;DHT22;27057;51.438;-0.010;2023-04-29T07:13:42;11.30;99.90
41310;DHT22;27057;51.438;-0.010;2023-04-29T07:16:17;11.40;99.90
41310;DHT22;27057;51.438;-0.010;2023-04-29T07:18:49;11.60;99.90
41310;DHT22;27057;51.438;-0.010;2023-04-29T07:21:17;11.70;99.90
41310;DHT22;27057;51.438;-0.010;2023-04-29T07:23:44;11.80;99.90
41310;DHT22;27057;51.438;-0.010;2023-04-29T07:26:14;11.80;99.90
41310;DHT22;27057;51.438;-0.010;2023-04-29T07:28:46;12.00;99.90
41310;DHT22;27057;51.438;-0.010;2023-04-29T07:31:14;11.80;99.90
41310;DHT22;27057;51.438;-0.010;2023-04-29T07:33:43;11.50;99.90
41310;DHT22;27057;51.438;-0.010;2023-04-29T07:36:12;12.20;99.90
41310;DHT22;27057;51.438;-0.010;2023-04-29T07:38:40;11.90;99.90
41310;DHT22;27057;51.438;-0.010;2023-04-29T07:41:07;12.80;99.90
41310;DHT22;27057;51.438;-0.010;2023-04-29T07:43:35;11.40;99.90
41310;DHT22;27057;51.438;-0.010;2023-04-29T07:46:04;11.30;99.90
41310;DHT22;27057;51.438;-0.010;2023-04-29T07:48:39;11.20;99.90
41310;DHT22;27057;51.438;-0.010;2023-04-29T07:51:11;11.40;99.90
41310;DHT22;27057;51.438;-0.010;2023-04-29T07:53:42;11.50;99.90
41310;DHT22;27057;51.438;-0.010;2023-04-29T07:56:09;11.60;99.90
41310;DHT22;27057;51.438;-0.010;2023-04-29T07:58:40;11.80;99.90
41310;DHT22;27057;51.438;-0.010;2023-04-29T08:01:08;11.80;99.90
41310;DHT22;27057;51.438;-0.010;2023-04-29T08:03:37;11.90;99.90
41310;DHT22;27057;51.438;-0.010;2023-04-29T08:06:08;12.10;99.90
41310;DHT22;27057;51.438;-0.010;2023-04-29T08:08:36;12.10;99.90
41310;DHT22;27057;51.438;-0.010;2023-04-29T08:11:04;10.30;99.90
41310;DHT22;27057;51.438;-0.010;2023-04-29T08:13:32;11.90;99.90
41310;DHT22;27057;51.438;-0.010;2023-04-29T08:16:00;12.70;99.90
41310;DHT22;27057;51.438;-0.010;2023-04-29T08:18:28;13.80;99.90
41310;DHT22;27057;51.438;-0.010;2023-04-29T08:20:56;12.70;99.90
41310;DHT22;27057;51.438;-0.010;2023-04-29T08:23:23;12.40;99.90
41310;DHT22;27057;51.438;-0.010;2023-04-29T08:25:51;12.60;99.90
41310;DHT22;27057;51.438;-0.010;2023-04-29T08:28:18;12.80;99.90
41310;DHT22;27057;51.438;-0.010;2023-04-29T08:30:46;12.80;99.90
41310;DHT22;27057;51.438;-0.010;2023-04-29T08:33:14;12.70;99.90
41310;DHT22;27057;51.438;-0.010;2023-04-29T08:35:42;12.90;99.90
41310;DHT22;27057;51.438;-0.010;2023-04-29T08:38:09;12.80;99.90
41310;DHT22;27057;51.438;-0.010;2023-04-29T08:40:45;13.10;99.90
41310;DHT22;27057;51.438;-0.010;2023-04-29T08:43:15;13.00;99.90
41310;DHT22;27057;51.438;-0.010;2023-04-29T08:45:44;13.10;99.90
41310;DHT22;27057;51.438;-0.010;2023-04-29T08:48:12;13.40;99.90
41310;DHT22;27057;51.438;-0.010;2023-04-29T08:50:42;13.30;99.90
41310;DHT22;27057;51.438;-0.010;2023-04-29T08:53:10;13.40;99.90
41310;DHT22;27057;51.438;-0.010;2023-04-29T08:55:46;13.40;99.90
41310;DHT22;27057;51.438;-0.010;2023-04-29T08:58:14;13.50;99.90
41310;DHT22;27057;51.438;-0.010;2023-04-29T09:00:43;13.60;99.90
41310;DHT22;27057;51.438;-0.010;2023-04-29T09:05:42;13.70;99.90
41310;DHT22;27057;51.438;-0.010;2023-04-29T09:08:12;13.80;99.90
41310;DHT22;27057;51.438;-0.010;2023-04-29T09:10:41;14.20;99.90
41310;DHT22;27057;51.438;-0.010;2023-04-29T09:13:27;14.00;99.90
41310;DHT22;27057;51.438;-0.010;2023-04-29T09:15:55;14.00;99.90
41310;DHT22;27057;51.438;-0.010;2023-04-29T09:21:22;14.20;99.90
41310;DHT22;27057;51.438;-0.010;2023-04-29T09:23:52;14.30;99.90
41310;DHT22;27057;51.438;-0.010;2023-04-29T09:26:21;14.10;99.90
41310;DHT22;27057;51.438;-0.010;2023-04-29T09:29:18;14.80;99.90
41310;DHT22;27057;51.438;-0.010;2023-04-29T09:31:47;14.50;99.90
41310;DHT22;27057;51.438;-0.010;2023-04-29T09:34:33;14.40;99.90
41310;DHT22;27057;51.438;-0.010;2023-04-29T09:37:24;14.50;99.90
41310;DHT22;27057;51.438;-0.010;2023-04-29T09:39:53;14.30;99.90
41310;DHT22;27057;51.438;-0.010;2023-04-29T09:42:21;14.60;99.90
41310;DHT22;27057;51.438;-0.010;2023-04-29T09:44:48;14.30;99.90
41310;DHT22;27057;51.438;-0.010;2023-04-29T09:47:16;14.20;99.90
41310;DHT22;27057;51.438;-0.010;2023-04-29T09:49:44;14.40;99.90
41310;DHT22;27057;51.438;-0.010;2023-04-29T09:52:15;14.70;99.90
41310;DHT22;27057;51.438;-0.010;2023-04-29T09:54:46;14.60;99.90
41310;DHT22;27057;51.438;-0.010;2023-04-29T09:57:14;14.70;99.90
41310;DHT22;27057;51.438;-0.010;2023-04-29T09:59:42;14.80;99.90
41310;DHT22;27057;51.438;-0.010;2023-04-29T10:02:14;14.80;99.90
41310;DHT22;27057;51.438;-0.010;2023-04-29T10:04:44;14.90;99.90
41310;DHT22;27057;51.438;-0.010;2023-04-29T10:07:14;15.00;99.90
41310;DHT22;27057;51.438;-0.010;2023-04-29T10:09:44;15.10;99.90
41310;DHT22;27057;51.438;-0.010;2023-04-29T10:12:17;15.60;99.90
41310;DHT22;27057;51.438;-0.010;2023-04-29T10:20:24;15.60;99.90
41310;DHT22;27057;51.438;-0.010;2023-04-29T10:22:53;15.80;99.90
41310;DHT22;27057;51.438;-0.010;2023-04-29T10:25:26;16.80;99.90
41310;DHT22;27057;51.438;-0.010;2023-04-29T10:27:55;16.00;99.90
41310;DHT22;27057;51.438;-0.010;2023-04-29T10:30:23;16.80;99.90
41310;DHT22;27057;51.438;-0.010;2023-04-29T10:32:51;17.10;99.90
41310;DHT22;27057;51.438;-0.010;2023-04-29T10:35:20;16.60;99.90
41310;DHT22;27057;51.438;-0.010;2023-04-29T10:37:52;16.40;99.90
41310;DHT22;27057;51.438;-0.010;2023-04-29T10:40:40;16.40;99.90
41310;DHT22;27057;51.438;-0.010;2023-04-29T10:43:11;17.10;99.90
41310;DHT22;27057;51.438;-0.010;2023-04-29T10:45:40;16.80;99.90
41310;DHT22;27057;51.438;-0.010;2023-04-29T10:48:11;16.50;99.90
41310;DHT22;27057;51.438;-0.010;2023-04-29T10:53:19;17.10;99.90
41310;DHT22;27057;51.438;-0.010;2023-04-29T10:55:52;16.90;99.90
41310;DHT22;27057;51.438;-0.010;2023-04-29T10:58:43;17.70;99.90
41310;DHT22;27057;51.438;-0.010;2023-04-29T11:01:13;17.30;99.90
41310;DHT22;27057;51.438;-0.010;2023-04-29T11:03:52;17.20;99.90
41310;DHT22;27057;51.438;-0.010;2023-04-29T11:06:23;17.40;99.90
41310;DHT22;27057;51.438;-0.010;2023-04-29T11:11:45;17.60;99.90
41310;DHT22;27057;51.438;-0.010;2023-04-29T11:14:13;17.80;99.90
41310;DHT22;27057;51.438;-0.010;2023-04-29T11:16:52;17.80;99.90
41310;DHT22;27057;51.438;-0.010;2023-04-29T11:19:23;18.10;99.90
41310;DHT22;27057;51.438;-0.010;2023-04-29T11:27:22;18.30;99.90
41310;DHT22;27057;51.438;-0.010;2023-04-29T11:29:54;18.40;99.90
41310;DHT22;27057;51.438;-0.010;2023-04-29T11:32:25;18.50;99.90
41310;DHT22;27057;51.438;-0.010;2023-04-29T11:34:53;18.60;99.90
41310;DHT22;27057;51.438;-0.010;2023-04-29T11:37:24;18.50;99.90
41310;DHT22;27057;51.438;-0.010;2023-04-29T11:39:58;18.50;99.90
41310;DHT22;27057;51.438;-0.010;2023-04-29T11:42:27;18.70;99.90
41310;DHT22;27057;51.438;-0.010;2023-04-29T11:44:55;18.70;99.90
41310;DHT22;27057;51.438;-0.010;2023-04-29T11:47:27;18.80;99.90
41310;DHT22;27057;51.438;-0.010;2023-04-29T11:50:03;18.90;99.90
41310;DHT22;27057;51.438;-0.010;2023-04-29T11:52:33;19.00;99.90
41310;DHT22;27057;51.438;-0.010;2023-04-29T11:55:07;19.20;99.90
41310;DHT22;27057;51.438;-0.010;2023-04-29T11:57:36;20.40;99.90
41310;DHT22;27057;51.438;-0.010;2023-04-29T12:00:03;19.60;99.90
41310;DHT22;27057;51.438;-0.010;2023-04-29T12:02:34;19.80;99.90
41310;DHT22;27057;51.438;-0.010;2023-04-29T12:05:06;20.00;99.90
41310;DHT22;27057;51.438;-0.010;2023-04-29T12:07:35;20.30;99.90
41310;DHT22;27057;51.438;-0.010;2023-04-29T12:10:10;20.80;99.90
41310;DHT22;27057;51.438;-0.010;2023-04-29T12:12:41;21.10;99.90
41310;DHT22;27057;51.438;-0.010;2023-04-29T12:15:10;21.50;99.90
41310;DHT22;27057;51.438;-0.010;2023-04-29T12:17:39;21.80;99.90
41310;DHT22;27057;51.438;-0.010;2023-04-29T12:20:07;21.70;99.90
41310;DHT22;27057;51.438;-0.010;2023-04-29T12:22:38;21.90;99.90
41310;DHT22;27057;51.438;-0.010;2023-04-29T12:25:06;21.90;99.90
41310;DHT22;27057;51.438;-0.010;2023-04-29T12:27:35;21.00;99.90
41310;DHT22;27057;51.438;-0.010;2023-04-29T12:30:07;22.10;99.90
41310;DHT22;27057;51.438;-0.010;2023-04-29T12:32:36;22.30;99.90
41310;DHT22;27057;51.438;-0.010;2023-04-29T12:35:04;22.70;99.90
41310;DHT22;27057;51.438;-0.010;2023-04-29T12:37:32;23.10;99.90
41310;DHT22;27057;51.438;-0.010;2023-04-29T12:40:01;23.10;99.90
41310;DHT22;27057;51.438;-0.010;2023-04-29T12:42:32;23.10;99.90
41310;DHT22;27057;51.438;-0.010;2023-04-29T12:45:00;23.40;99.90
41310;DHT22;27057;51.438;-0.010;2023-04-29T12:47:31;23.50;99.90
41310;DHT22;27057;51.438;-0.010;2023-04-29T12:50:05;23.80;99.90
41310;DHT22;27057;51.438;-0.010;2023-04-29T12:52:33;24.00;99.90
41310;DHT22;27057;51.438;-0.010;2023-04-29T12:55:03;23.70;99.90
41310;DHT22;27057;51.438;-0.010;2023-04-29T12:57:31;23.80;99.90
41310;DHT22;27057;51.438;-0.010;2023-04-29T12:59:58;23.80;99.90
41310;DHT22;27057;51.438;-0.010;2023-04-29T13:02:25;23.90;99.90
41310;DHT22;27057;51.438;-0.010;2023-04-29T13:04:54;24.10;99.90
41310;DHT22;27057;51.438;-0.010;2023-04-29T13:07:22;24.40;99.90
41310;DHT22;27057;51.438;-0.010;2023-04-29T13:09:50;24.50;99.90
41310;DHT22;27057;51.438;-0.010;2023-04-29T13:12:17;24.50;99.90
41310;DHT22;27057;51.438;-0.010;2023-04-29T13:14:45;24.80;99.90
41310;DHT22;27057;51.438;-0.010;2023-04-29T13:17:13;25.10;99.90
41310;DHT22;27057;51.438;-0.010;2023-04-29T13:19:40;25.10;99.90
41310;DHT22;27057;51.438;-0.010;2023-04-29T13:22:17;25.30;99.90
41310;DHT22;27057;51.438;-0.010;2023-04-29T13:24:45;25.50;99.90
41310;DHT22;27057;51.438;-0.010;2023-04-29T13:27:13;25.70;99.90
41310;DHT22;27057;51.438;-0.010;2023-04-29T13:29:40;25.60;99.90
41310;DHT22;27057;51.438;-0.010;2023-04-29T13:32:07;25.70;99.90
41310;DHT22;27057;51.438;-0.010;2023-04-29T13:34:35;25.60;98.80
41310;DHT22;27057;51.438;-0.010;2023-04-29T13:37:02;25.60;98.80
41310;DHT22;27057;51.438;-0.010;2023-04-29T13:39:30;25.70;99.30
41310;DHT22;27057;51.438;-0.010;2023-04-29T13:41:58;25.90;99.30
41310;DHT22;27057;51.438;-0.010;2023-04-29T13:44:26;26.00;99.20
41310;DHT22;27057;51.438;-0.010;2023-04-29T13:47:05;25.70;97.30
41310;DHT22;27057;51.438;-0.010;2023-04-29T13:49:33;26.00;99.50
41310;DHT22;27057;51.438;-0.010;2023-04-29T13:52:21;25.70;97.20
41310;DHT22;27057;51.438;-0.010;2023-04-29T13:54:51;25.90;96.60
41310;DHT22;27057;51.438;-0.010;2023-04-29T13:57:21;25.70;96.70
41310;DHT22;27057;51.438;-0.010;2023-04-29T13:59:52;25.70;98.20
41310;DHT22;27057;51.438;-0.010;2023-04-29T14:02:21;26.20;98.70
41310;DHT22;27057;51.438;-0.010;2023-04-29T14:04:52;26.60;96.90
41310;DHT22;27057;51.438;-0.010;2023-04-29T14:07:21;26.50;95.70
41310;DHT22;27057;51.438;-0.010;2023-04-29T14:09:49;26.90;98.00
41310;DHT22;27057;51.438;-0.010;2023-04-29T14:12:16;27.20;97.60
41310;DHT22;27057;51.438;-0.010;2023-04-29T14:14:44;26.90;94.90
41310;DHT22;27057;51.438;-0.010;2023-04-29T14:17:11;27.20;96.50
41310;DHT22;27057;51.438;-0.010;2023-04-29T14:19:38;27.40;97.10
41310;DHT22;27057;51.438;-0.010;2023-04-29T14:22:06;27.10;96.30
41310;DHT22;27057;51.438;-0.010;2023-04-29T14:24:33;27.50;95.90
41310;DHT22;27057;51.438;-0.010;2023-04-29T14:27:00;27.00;94.10
41310;DHT22;27057;51.438;-0.010;2023-04-29T14:29:28;26.40;94.10
41310;DHT22;27057;51.438;-0.010;2023-04-29T14:31:56;26.90;96.30
41310;DHT22;27057;51.438;-0.010;2023-04-29T14:34:23;27.20;96.00
41310;DHT22;27057;51.438;-0.010;2023-04-29T14:36:51;27.20;95.60
41310;DHT22;27057;51.438;-0.010;2023-04-29T14:39:18;27.10;93.90
41310;DHT22;27057;51.438;-0.010;2023-04-29T14:41:45;27.20;95.10
41310;DHT22;27057;51.438;-0.010;2023-04-29T14:44:14;27.40;95.30
41310;DHT22;27057;51.438;-0.010;2023-04-29T14:46:42;27.20;94.60
41310;DHT22;27057;51.438;-0.010;2023-04-29T14:49:10;27.20;93.40
41310;DHT22;27057;51.438;-0.010;2023-04-29T14:51:38;27.20;94.00
41310;DHT22;27057;51.438;-0.010;2023-04-29T14:54:05;27.60;94.10
41310;DHT22;27057;51.438;-0.010;2023-04-29T14:56:33;27.80;93.40
41310;DHT22;27057;51.438;-0.010;2023-04-29T14:59:02;28.20;94.30
41310;DHT22;27057;51.438;-0.010;2023-04-29T15:01:30;28.20;93.70
41310;DHT22;27057;51.438;-0.010;2023-04-29T15:03:58;28.30;93.80
41310;DHT22;27057;51.438;-0.010;2023-04-29T15:06:26;28.60;93.00
41310;DHT22;27057;51.438;-0.010;2023-04-29T15:08:53;28.50;93.40
41310;DHT22;27057;51.438;-0.010;2023-04-29T15:11:21;28.90;93.40
41310;DHT22;27057;51.438;-0.010;2023-04-29T15:13:49;28.70;90.40
41310;DHT22;27057;51.438;-0.010;2023-04-29T15:16:16;28.30;91.50
41310;DHT22;27057;51.438;-0.010;2023-04-29T15:18:44;28.90;92.40
41310;DHT22;27057;51.438;-0.010;2023-04-29T15:21:12;29.00;92.20
41310;DHT22;27057;51.438;-0.010;2023-04-29T15:23:40;29.20;91.90
41310;DHT22;27057;51.438;-0.010;2023-04-29T15:26:07;29.10;92.00
41310;DHT22;27057;51.438;-0.010;2023-04-29T15:28:36;29.20;91.70
41310;DHT22;27057;51.438;-0.010;2023-04-29T15:31:04;29.50;91.10
41310;DHT22;27057;51.438;-0.010;2023-04-29T15:33:31;28.80;90.20
41310;DHT22;27057;51.438;-0.010;2023-04-29T15:35:59;29.20;90.40
41310;DHT22;27057;51.438;-0.010;2023-04-29T15:38:26;29.10;91.10
41310;DHT22;27057;51.438;-0.010;2023-04-29T15:40:57;29.00;90.90
41310;DHT22;27057;51.438;-0.010;2023-04-29T15:43:27;28.90;90.40
41310;DHT22;27057;51.438;-0.010;2023-04-29T15:45:55;28.90;90.50
41310;DHT22;27057;51.438;-0.010;2023-04-29T15:48:22;28.70;90.20
41310;DHT22;27057;51.438;-0.010;2023-04-29T15:50:51;28.80;90.70
41310;DHT22;27057;51.438;-0.010;2023-04-29T15:53:19;29.10;90.70
41310;DHT22;27057;51.438;-0.010;2023-04-29T15:55:47;28.90;88.80
41310;DHT22;27057;51.438;-0.010;2023-04-29T15:58:14;28.90;89.70
41310;DHT22;27057;51.438;-0.010;2023-04-29T16:00:42;29.10;89.40
41310;DHT22;27057;51.438;-0.010;2023-04-29T16:03:10;28.40;96.90
41310;DHT22;27057;51.438;-0.010;2023-04-29T16:05:38;28.40;87.30
41310;DHT22;27057;51.438;-0.010;2023-04-29T16:08:05;27.80;88.30
41310;DHT22;27057;51.438;-0.010;2023-04-29T16:10:33;27.70;90.00
41310;DHT22;27057;51.438;-0.010;2023-04-29T16:13:00;27.70;90.20
41310;DHT22;27057;51.438;-0.010;2023-04-29T16:15:28;28.20;89.70
41310;DHT22;27057;51.438;-0.010;2023-04-29T16:17:56;28.30;90.50
41310;DHT22;27057;51.438;-0.010;2023-04-29T16:20:23;28.40;90.40
41310;DHT22;27057;51.438;-0.010;2023-04-29T16:22:51;28.20;89.50